sensor_id;sensor_type;location;lat;lon;timestamp;P1;durP1;ratioP1;P2;durP2;ratioP2
70985;SDS011;58645;43.068;25.610;2023-08-01T00:00:44;41.00;;;17.10;;
70985;SDS011;58645;43.068;25.610;2023-08-01T00:03:10;27.90;;;16.17;;
70985;SDS011;58645;43.068;25.610;2023-08-01T00:05:36;25.77;;;15.75;;
70985;SDS011;58645;43.068;25.610;2023-08-01T00:08:02;28.10;;;17.83;;
70985;SDS011;58645;43.068;25.610;2023-08-01T00:10:28;28.80;;;17.00;;
70985;SDS011;58645;43.068;25.610;2023-08-01T00:12:54;28.75;;;17.95;;
70985;SDS011;58645;43.068;25.610;2023-08-01T00:15:19;28.88;;;18.10;;
70985;SDS011;58645;43.068;25.610;2023-08-01T00:17:45;34.05;;;18.08;;
70985;SDS011;58645;43.068;25.610;2023-08-01T00:20:11;25.25;;;16.13;;
70985;SDS011;58645;43.068;25.610;2023-08-01T00:22:37;28.85;;;17.83;;
70985;SDS011;58645;43.068;25.610;2023-08-01T00:25:02;30.45;;;17.10;;
70985;SDS011;58645;43.068;25.610;2023-08-01T00:27:28;30.08;;;16.13;;
70985;SDS011;58645;43.068;25.610;2023-08-01T00:29:54;27.30;;;17.63;;
70985;SDS011;58645;43.068;25.610;2023-08-01T00:32:20;25.17;;;16.42;;
70985;SDS011;58645;43.068;25.610;2023-08-01T00:34:46;32.00;;;18.23;;
70985;SDS011;58645;43.068;25.610;2023-08-01T00:37:14;43.80;;;17.17;;
70985;SDS011;58645;43.068;25.610;2023-08-01T00:39:40;32.20;;;16.42;;
70985;SDS011;58645;43.068;25.610;2023-08-01T00:42:06;31.50;;;17.33;;
70985;SDS011;58645;43.068;25.610;2023-08-01T00:44:32;29.70;;;15.80;;
70985;SDS011;58645;43.068;25.610;2023-08-01T00:46:57;32.75;;;18.40;;
70985;SDS011;58645;43.068;25.610;2023-08-01T00:49:23;32.25;;;17.70;;
70985;SDS011;58645;43.068;25.610;2023-08-01T00:51:49;30.48;;;18.13;;
70985;SDS011;58645;43.068;25.610;2023-08-01T00:54:15;30.58;;;18.52;;
70985;SDS011;58645;43.068;25.610;2023-08-01T00:56:41;31.08;;;18.00;;
70985;SDS011;58645;43.068;25.610;2023-08-01T00:59:07;28.27;;;18.52;;
70985;SDS011;58645;43.068;25.610;2023-08-01T01:01:33;32.22;;;19.05;;
70985;SDS011;58645;43.068;25.610;2023-08-01T01:03:59;36.40;;;21.48;;
70985;SDS011;58645;43.068;25.610;2023-08-01T01:08:58;36.05;;;21.13;;
70985;SDS011;58645;43.068;25.610;2023-08-01T01:11:23;32.42;;;20.65;;
70985;SDS011;58645;43.068;25.610;2023-08-01T01:13:49;38.25;;;22.58;;
70985;SDS011;58645;43.068;25.610;2023-08-01T01:16:18;42.17;;;24.20;;
70985;SDS011;58645;43.068;25.610;2023-08-01T01:18:44;38.80;;;22.90;;
70985;SDS011;58645;43.068;25.610;2023-08-01T01:21:26;38.90;;;22.10;;
70985;SDS011;58645;43.068;25.610;2023-08-01T01:23:51;35.25;;;21.40;;
70985;SDS011;58645;43.068;25.610;2023-08-01T01:26:18;36.17;;;21.70;;
70985;SDS011;58645;43.068;25.610;2023-08-01T01:28:49;37.72;;;20.38;;
70985;SDS011;58645;43.068;25.610;2023-08-01T01:31:16;36.83;;;20.90;;
70985;SDS011;58645;43.068;25.610;2023-08-01T01:33:42;33.05;;;20.27;;
70985;SDS011;58645;43.068;25.610;2023-08-01T01:36:08;33.92;;;20.20;;
70985;SDS011;58645;43.068;25.610;2023-08-01T01:38:34;30.88;;;19.80;;
70985;SDS011;58645;43.068;25.610;2023-08-01T01:41:00;31.35;;;19.35;;
70985;SDS011;58645;43.068;25.610;2023-08-01T01:43:26;29.45;;;18.80;;
70985;SDS011;58645;43.068;25.610;2023-08-01T01:45:51;31.00;;;18.83;;
70985;SDS011;58645;43.068;25.610;2023-08-01T01:48:17;32.35;;;18.98;;
70985;SDS011;58645;43.068;25.610;2023-08-01T01:50:43;31.33;;;18.38;;
70985;SDS011;58645;43.068;25.610;2023-08-01T01:53:09;28.83;;;18.70;;
70985;SDS011;58645;43.068;25.610;2023-08-01T01:55:34;28.10;;;17.90;;
70985;SDS011;58645;43.068;25.610;2023-08-01T01:58:00;28.23;;;18.58;;
70985;SDS011;58645;43.068;25.610;2023-08-01T02:00:26;33.80;;;17.70;;
70985;SDS011;58645;43.068;25.610;2023-08-01T02:02:51;28.70;;;18.13;;
70985;SDS011;58645;43.068;25.610;2023-08-01T02:05:17;28.67;;;18.20;;
70985;SDS011;58645;43.068;25.610;2023-08-01T02:07:43;32.13;;;18.33;;
70985;SDS011;58645;43.068;25.610;2023-08-01T02:10:09;29.02;;;17.73;;
70985;SDS011;58645;43.068;25.610;2023-08-01T02:12:36;26.83;;;17.58;;
70985;SDS011;58645;43.068;25.610;2023-08-01T02:15:02;29.17;;;19.42;;
70985;SDS011;58645;43.068;25.610;2023-08-01T02:17:27;29.40;;;18.38;;
70985;SDS011;58645;43.068;25.610;2023-08-01T02:19:53;26.50;;;17.63;;
70985;SDS011;58645;43.068;25.610;2023-08-01T02:22:19;28.35;;;17.13;;
70985;SDS011;58645;43.068;25.610;2023-08-01T02:24:45;28.60;;;17.95;;
70985;SDS011;58645;43.068;25.610;2023-08-01T02:27:10;29.48;;;18.15;;
70985;SDS011;58645;43.068;25.610;2023-08-01T02:29:36;28.75;;;18.38;;
70985;SDS011;58645;43.068;25.610;2023-08-01T02:32:02;27.85;;;17.00;;
70985;SDS011;58645;43.068;25.610;2023-08-01T02:34:28;33.25;;;18.60;;
70985;SDS011;58645;43.068;25.610;2023-08-01T02:36:53;30.17;;;18.48;;
70985;SDS011;58645;43.068;25.610;2023-08-01T02:39:19;27.20;;;18.42;;
70985;SDS011;58645;43.068;25.610;2023-08-01T02:41:45;32.28;;;19.23;;
70985;SDS011;58645;43.068;25.610;2023-08-01T02:44:11;30.58;;;18.40;;
70985;SDS011;58645;43.068;25.610;2023-08-01T02:46:38;31.35;;;19.38;;
70985;SDS011;58645;43.068;25.610;2023-08-01T02:49:03;32.83;;;20.73;;
70985;SDS011;58645;43.068;25.610;2023-08-01T02:51:29;29.13;;;18.08;;
70985;SDS011;58645;43.068;25.610;2023-08-01T02:53:55;37.88;;;21.02;;
70985;SDS011;58645;43.068;25.610;2023-08-01T02:56:20;43.00;;;21.42;;
70985;SDS011;58645;43.068;25.610;2023-08-01T02:58:46;42.45;;;21.13;;
70985;SDS011;58645;43.068;25.610;2023-08-01T03:01:12;74.35;;;22.02;;
70985;SDS011;58645;43.068;25.610;2023-08-01T03:03:38;57.38;;;23.02;;
70985;SDS011;58645;43.068;25.610;2023-08-01T03:08:30;39.78;;;21.70;;
70985;SDS011;58645;43.068;25.610;2023-08-01T03:10:56;42.30;;;23.20;;
70985;SDS011;58645;43.068;25.610;2023-08-01T03:13:23;40.95;;;22.20;;
70985;SDS011;58645;43.068;25.610;2023-08-01T03:15:48;39.47;;;22.67;;
70985;SDS011;58645;43.068;25.610;2023-08-01T03:18:14;38.35;;;20.88;;
70985;SDS011;58645;43.068;25.610;2023-08-01T03:20:40;38.08;;;21.00;;
70985;SDS011;58645;43.068;25.610;2023-08-01T03:23:05;32.22;;;19.30;;
70985;SDS011;58645;43.068;25.610;2023-08-01T03:25:31;28.80;;;17.38;;
70985;SDS011;58645;43.068;25.610;2023-08-01T03:27:57;29.42;;;17.35;;
70985;SDS011;58645;43.068;25.610;2023-08-01T03:30:23;25.48;;;16.00;;
70985;SDS011;58645;43.068;25.610;2023-08-01T03:32:49;23.40;;;14.75;;
70985;SDS011;58645;43.068;25.610;2023-08-01T03:35:14;21.55;;;14.65;;
70985;SDS011;58645;43.068;25.610;2023-08-01T03:37:40;21.55;;;13.48;;
70985;SDS011;58645;43.068;25.610;2023-08-01T03:40:06;23.35;;;13.40;;
70985;SDS011;58645;43.068;25.610;2023-08-01T03:42:35;20.15;;;13.00;;
70985;SDS011;58645;43.068;25.610;2023-08-01T03:45:02;20.13;;;13.38;;
70985;SDS011;58645;43.068;25.610;2023-08-01T03:47:28;21.27;;;13.65;;
70985;SDS011;58645;43.068;25.610;2023-08-01T03:49:53;20.15;;;13.27;;
70985;SDS011;58645;43.068;25.610;2023-08-01T03:52:19;25.00;;;13.90;;
70985;SDS011;58645;43.068;25.610;2023-08-01T03:54:45;21.85;;;14.10;;
70985;SDS011;58645;43.068;25.610;2023-08-01T03:57:11;21.70;;;14.40;;
70985;SDS011;58645;43.068;25.610;2023-08-01T03:59:36;24.40;;;14.95;;
70985;SDS011;58645;43.068;25.610;2023-08-01T04:02:02;23.45;;;15.02;;
70985;SDS011;58645;43.068;25.610;2023-08-01T04:04:29;24.77;;;14.77;;
70985;SDS011;58645;43.068;25.610;2023-08-01T04:06:56;23.15;;;14.25;;
70985;SDS011;58645;43.068;25.610;2023-08-01T04:09:22;22.00;;;13.40;;
70985;SDS011;58645;43.068;25.610;2023-08-01T04:11:48;20.25;;;13.02;;
70985;SDS011;58645;43.068;25.610;2023-08-01T04:14:14;21.42;;;13.13;;
70985;SDS011;58645;43.068;25.610;2023-08-01T04:16:39;21.75;;;15.35;;
70985;SDS011;58645;43.068;25.610;2023-08-01T04:19:05;20.88;;;14.50;;
70985;SDS011;58645;43.068;25.610;2023-08-01T04:21:31;39.97;;;23.50;;
70985;SDS011;58645;43.068;25.610;2023-08-01T04:23:56;25.77;;;16.45;;
70985;SDS011;58645;43.068;25.610;2023-08-01T04:26:22;21.73;;;14.45;;
70985;SDS011;58645;43.068;25.610;2023-08-01T04:28:48;17.05;;;10.93;;
70985;SDS011;58645;43.068;25.610;2023-08-01T04:31:14;16.17;;;10.38;;
70985;SDS011;58645;43.068;25.610;2023-08-01T04:33:40;15.88;;;10.38;;
70985;SDS011;58645;43.068;25.610;2023-08-01T04:36:05;16.08;;;9.52;;
70985;SDS011;58645;43.068;25.610;2023-08-01T04:38:31;15.88;;;8.93;;
70985;SDS011;58645;43.068;25.610;2023-08-01T04:40:57;12.35;;;8.68;;
70985;SDS011;58645;43.068;25.610;2023-08-01T04:43:22;11.82;;;8.73;;
70985;SDS011;58645;43.068;25.610;2023-08-01T04:45:48;17.83;;;12.43;;
70985;SDS011;58645;43.068;25.610;2023-08-01T04:48:14;21.90;;;14.23;;
70985;SDS011;58645;43.068;25.610;2023-08-01T04:50:39;20.50;;;15.07;;
70985;SDS011;58645;43.068;25.610;2023-08-01T04:53:05;24.75;;;16.83;;
70985;SDS011;58645;43.068;25.610;2023-08-01T04:55:31;23.80;;;17.45;;
70985;SDS011;58645;43.068;25.610;2023-08-01T05:00:23;20.77;;;14.25;;
70985;SDS011;58645;43.068;25.610;2023-08-01T05:02:49;18.38;;;13.05;;
70985;SDS011;58645;43.068;25.610;2023-08-01T05:05:15;19.40;;;13.55;;
70985;SDS011;58645;43.068;25.610;2023-08-01T05:07:41;24.85;;;14.50;;
70985;SDS011;58645;43.068;25.610;2023-08-01T05:10:07;19.13;;;14.27;;
70985;SDS011;58645;43.068;25.610;2023-08-01T05:12:33;20.88;;;15.02;;
70985;SDS011;58645;43.068;25.610;2023-08-01T05:14:59;25.65;;;16.65;;
70985;SDS011;58645;43.068;25.610;2023-08-01T05:17:24;20.50;;;13.88;;
70985;SDS011;58645;43.068;25.610;2023-08-01T05:19:50;13.02;;;8.52;;
70985;SDS011;58645;43.068;25.610;2023-08-01T05:22:16;13.38;;;9.13;;
70985;SDS011;58645;43.068;25.610;2023-08-01T05:24:42;16.38;;;9.77;;
70985;SDS011;58645;43.068;25.610;2023-08-01T05:27:07;14.32;;;7.65;;
70985;SDS011;58645;43.068;25.610;2023-08-01T05:29:33;15.00;;;7.45;;
70985;SDS011;58645;43.068;25.610;2023-08-01T05:31:59;9.75;;;6.22;;
70985;SDS011;58645;43.068;25.610;2023-08-01T05:34:24;12.02;;;6.47;;
70985;SDS011;58645;43.068;25.610;2023-08-01T05:36:50;10.43;;;6.40;;
70985;SDS011;58645;43.068;25.610;2023-08-01T05:39:16;7.43;;;4.85;;
70985;SDS011;58645;43.068;25.610;2023-08-01T05:41:42;8.90;;;5.13;;
70985;SDS011;58645;43.068;25.610;2023-08-01T05:44:08;7.53;;;5.22;;
70985;SDS011;58645;43.068;25.610;2023-08-01T05:46:34;16.88;;;5.40;;
70985;SDS011;58645;43.068;25.610;2023-08-01T05:49:00;8.95;;;5.82;;
70985;SDS011;58645;43.068;25.610;2023-08-01T05:53:51;15.02;;;9.57;;
70985;SDS011;58645;43.068;25.610;2023-08-01T05:56:20;20.95;;;14.10;;
70985;SDS011;58645;43.068;25.610;2023-08-01T05:58:45;18.05;;;11.05;;
70985;SDS011;58645;43.068;25.610;2023-08-01T06:01:11;17.15;;;11.52;;
70985;SDS011;58645;43.068;25.610;2023-08-01T06:06:03;18.98;;;10.70;;
70985;SDS011;58645;43.068;25.610;2023-08-01T06:08:29;14.98;;;9.55;;
70985;SDS011;58645;43.068;25.610;2023-08-01T06:10:55;8.80;;;6.32;;
70985;SDS011;58645;43.068;25.610;2023-08-01T06:13:21;10.93;;;6.43;;
70985;SDS011;58645;43.068;25.610;2023-08-01T06:15:47;5.43;;;3.97;;
70985;SDS011;58645;43.068;25.610;2023-08-01T06:18:13;5.10;;;3.08;;
70985;SDS011;58645;43.068;25.610;2023-08-01T06:20:38;4.93;;;2.92;;
70985;SDS011;58645;43.068;25.610;2023-08-01T06:23:04;4.53;;;2.92;;
70985;SDS011;58645;43.068;25.610;2023-08-01T06:25:30;5.15;;;3.50;;
70985;SDS011;58645;43.068;25.610;2023-08-01T06:27:56;3.13;;;2.53;;
70985;SDS011;58645;43.068;25.610;2023-08-01T06:30:22;4.72;;;2.95;;
70985;SDS011;58645;43.068;25.610;2023-08-01T06:32:47;4.20;;;2.65;;
70985;SDS011;58645;43.068;25.610;2023-08-01T06:35:13;5.55;;;2.65;;
70985;SDS011;58645;43.068;25.610;2023-08-01T06:37:39;6.93;;;2.42;;
70985;SDS011;58645;43.068;25.610;2023-08-01T06:40:05;3.90;;;2.33;;
70985;SDS011;58645;43.068;25.610;2023-08-01T06:42:32;4.00;;;2.53;;
70985;SDS011;58645;43.068;25.610;2023-08-01T06:44:58;5.68;;;3.90;;
70985;SDS011;58645;43.068;25.610;2023-08-01T06:47:24;4.05;;;2.55;;
70985;SDS011;58645;43.068;25.610;2023-08-01T06:49:50;4.65;;;3.38;;
70985;SDS011;58645;43.068;25.610;2023-08-01T06:52:15;5.30;;;3.00;;
70985;SDS011;58645;43.068;25.610;2023-08-01T06:54:41;4.35;;;2.92;;
70985;SDS011;58645;43.068;25.610;2023-08-01T06:57:07;4.95;;;3.10;;
70985;SDS011;58645;43.068;25.610;2023-08-01T06:59:32;4.13;;;3.05;;
70985;SDS011;58645;43.068;25.610;2023-08-01T07:01:58;4.78;;;3.10;;
70985;SDS011;58645;43.068;25.610;2023-08-01T07:04:24;4.40;;;2.60;;
70985;SDS011;58645;43.068;25.610;2023-08-01T07:06:49;4.22;;;2.72;;
70985;SDS011;58645;43.068;25.610;2023-08-01T07:09:15;5.53;;;2.85;;
70985;SDS011;58645;43.068;25.610;2023-08-01T07:11:41;5.20;;;2.90;;
70985;SDS011;58645;43.068;25.610;2023-08-01T07:14:06;4.38;;;3.10;;
70985;SDS011;58645;43.068;25.610;2023-08-01T07:16:32;6.13;;;2.80;;
70985;SDS011;58645;43.068;25.610;2023-08-01T07:18:59;5.47;;;3.10;;
70985;SDS011;58645;43.068;25.610;2023-08-01T07:21:26;5.28;;;3.03;;
70985;SDS011;58645;43.068;25.610;2023-08-01T07:23:51;5.28;;;3.00;;
70985;SDS011;58645;43.068;25.610;2023-08-01T07:26:17;5.40;;;3.30;;
70985;SDS011;58645;43.068;25.610;2023-08-01T07:28:43;6.97;;;3.05;;
70985;SDS011;58645;43.068;25.610;2023-08-01T07:31:08;4.72;;;3.13;;
70985;SDS011;58645;43.068;25.610;2023-08-01T07:33:34;6.43;;;2.97;;
70985;SDS011;58645;43.068;25.610;2023-08-01T07:36:00;5.47;;;3.03;;
70985;SDS011;58645;43.068;25.610;2023-08-01T07:38:26;5.55;;;3.05;;
70985;SDS011;58645;43.068;25.610;2023-08-01T07:40:52;4.85;;;2.88;;
70985;SDS011;58645;43.068;25.610;2023-08-01T07:43:19;4.75;;;2.72;;
70985;SDS011;58645;43.068;25.610;2023-08-01T07:45:45;7.78;;;2.85;;
70985;SDS011;58645;43.068;25.610;2023-08-01T07:48:10;5.70;;;2.95;;
70985;SDS011;58645;43.068;25.610;2023-08-01T07:50:36;4.60;;;2.92;;
70985;SDS011;58645;43.068;25.610;2023-08-01T07:53:02;4.88;;;2.40;;
70985;SDS011;58645;43.068;25.610;2023-08-01T07:55:28;3.83;;;2.42;;
70985;SDS011;58645;43.068;25.610;2023-08-01T07:57:53;4.32;;;2.22;;
70985;SDS011;58645;43.068;25.610;2023-08-01T08:00:19;6.22;;;2.53;;
70985;SDS011;58645;43.068;25.610;2023-08-01T08:02:45;6.15;;;2.53;;
70985;SDS011;58645;43.068;25.610;2023-08-01T08:05:12;7.40;;;2.35;;
70985;SDS011;58645;43.068;25.610;2023-08-01T08:07:38;4.60;;;2.50;;
70985;SDS011;58645;43.068;25.610;2023-08-01T08:10:07;4.78;;;2.55;;
70985;SDS011;58645;43.068;25.610;2023-08-01T08:12:33;3.88;;;2.60;;
70985;SDS011;58645;43.068;25.610;2023-08-01T08:14:59;4.18;;;2.42;;
70985;SDS011;58645;43.068;25.610;2023-08-01T08:17:25;4.28;;;2.40;;
70985;SDS011;58645;43.068;25.610;2023-08-01T08:19:50;6.72;;;2.15;;
70985;SDS011;58645;43.068;25.610;2023-08-01T08:22:16;4.88;;;2.25;;
70985;SDS011;58645;43.068;25.610;2023-08-01T08:24:42;4.78;;;2.30;;
70985;SDS011;58645;43.068;25.610;2023-08-01T08:27:07;7.38;;;2.50;;
70985;SDS011;58645;43.068;25.610;2023-08-01T08:29:33;3.70;;;2.20;;
70985;SDS011;58645;43.068;25.610;2023-08-01T08:31:59;3.13;;;2.15;;
70985;SDS011;58645;43.068;25.610;2023-08-01T08:34:25;5.35;;;2.22;;
70985;SDS011;58645;43.068;25.610;2023-08-01T08:36:51;4.18;;;1.98;;
70985;SDS011;58645;43.068;25.610;2023-08-01T08:39:17;3.20;;;2.15;;
70985;SDS011;58645;43.068;25.610;2023-08-01T08:41:47;5.97;;;2.10;;
70985;SDS011;58645;43.068;25.610;2023-08-01T08:44:15;7.10;;;2.35;;
70985;SDS011;58645;43.068;25.610;2023-08-01T08:46:43;4.97;;;2.15;;
70985;SDS011;58645;43.068;25.610;2023-08-01T08:49:10;4.10;;;2.15;;
70985;SDS011;58645;43.068;25.610;2023-08-01T08:51:36;3.53;;;2.33;;
70985;SDS011;58645;43.068;25.610;2023-08-01T08:54:06;2.92;;;1.77;;
70985;SDS011;58645;43.068;25.610;2023-08-01T08:56:33;3.20;;;1.95;;
70985;SDS011;58645;43.068;25.610;2023-08-01T08:59:00;3.08;;;1.92;;
70985;SDS011;58645;43.068;25.610;2023-08-01T09:01:26;3.75;;;1.92;;
70985;SDS011;58645;43.068;25.610;2023-08-01T09:03:52;2.55;;;2.05;;
70985;SDS011;58645;43.068;25.610;2023-08-01T09:06:25;3.92;;;1.92;;
70985;SDS011;58645;43.068;25.610;2023-08-01T09:08:56;3.75;;;2.13;;
70985;SDS011;58645;43.068;25.610;2023-08-01T09:11:25;3.58;;;2.10;;
70985;SDS011;58645;43.068;25.610;2023-08-01T09:13:51;3.10;;;1.92;;
70985;SDS011;58645;43.068;25.610;2023-08-01T09:16:17;5.45;;;2.45;;
70985;SDS011;58645;43.068;25.610;2023-08-01T09:18:47;5.30;;;1.75;;
70985;SDS011;58645;43.068;25.610;2023-08-01T09:21:14;5.75;;;2.00;;
70985;SDS011;58645;43.068;25.610;2023-08-01T09:23:39;3.88;;;2.05;;
70985;SDS011;58645;43.068;25.610;2023-08-01T09:26:12;2.50;;;1.85;;
70985;SDS011;58645;43.068;25.610;2023-08-01T09:28:38;3.50;;;1.85;;
70985;SDS011;58645;43.068;25.610;2023-08-01T09:31:04;7.38;;;1.77;;
70985;SDS011;58645;43.068;25.610;2023-08-01T09:33:42;3.60;;;1.52;;
70985;SDS011;58645;43.068;25.610;2023-08-01T09:36:08;4.60;;;2.05;;
70985;SDS011;58645;43.068;25.610;2023-08-01T09:38:35;4.80;;;1.30;;
70985;SDS011;58645;43.068;25.610;2023-08-01T09:41:01;4.15;;;1.83;;
70985;SDS011;58645;43.068;25.610;2023-08-01T09:43:34;2.05;;;1.50;;
70985;SDS011;58645;43.068;25.610;2023-08-01T09:46:02;2.97;;;1.58;;
70985;SDS011;58645;43.068;25.610;2023-08-01T09:48:28;2.67;;;1.70;;
70985;SDS011;58645;43.068;25.610;2023-08-01T09:51:08;2.63;;;1.77;;
70985;SDS011;58645;43.068;25.610;2023-08-01T09:53:36;2.65;;;1.75;;
70985;SDS011;58645;43.068;25.610;2023-08-01T09:56:12;3.00;;;1.48;;
70985;SDS011;58645;43.068;25.610;2023-08-01T09:58:42;3.10;;;1.60;;
70985;SDS011;58645;43.068;25.610;2023-08-01T10:01:09;3.38;;;1.90;;
70985;SDS011;58645;43.068;25.610;2023-08-01T10:03:37;3.97;;;1.92;;
70985;SDS011;58645;43.068;25.610;2023-08-01T10:06:03;2.50;;;1.80;;
70985;SDS011;58645;43.068;25.610;2023-08-01T10:08:29;2.40;;;1.65;;
70985;SDS011;58645;43.068;25.610;2023-08-01T10:10:58;3.20;;;1.75;;
70985;SDS011;58645;43.068;25.610;2023-08-01T10:13:25;2.33;;;1.63;;
70985;SDS011;58645;43.068;25.610;2023-08-01T10:15:53;2.63;;;1.85;;
70985;SDS011;58645;43.068;25.610;2023-08-01T10:18:19;2.03;;;1.58;;
70985;SDS011;58645;43.068;25.610;2023-08-01T10:20:46;3.10;;;1.90;;
70985;SDS011;58645;43.068;25.610;2023-08-01T10:23:13;3.15;;;1.77;;
70985;SDS011;58645;43.068;25.610;2023-08-01T10:25:39;2.50;;;1.65;;
70985;SDS011;58645;43.068;25.610;2023-08-01T10:28:05;3.72;;;1.63;;
70985;SDS011;58645;43.068;25.610;2023-08-01T10:30:31;2.08;;;1.40;;
70985;SDS011;58645;43.068;25.610;2023-08-01T10:32:58;2.15;;;1.60;;
70985;SDS011;58645;43.068;25.610;2023-08-01T10:35:32;5.10;;;1.45;;
70985;SDS011;58645;43.068;25.610;2023-08-01T10:38:10;2.95;;;1.42;;
70985;SDS011;58645;43.068;25.610;2023-08-01T10:40:38;1.95;;;1.40;;
70985;SDS011;58645;43.068;25.610;2023-08-01T10:43:04;2.78;;;1.30;;
70985;SDS011;58645;43.068;25.610;2023-08-01T10:45:31;2.58;;;1.55;;
70985;SDS011;58645;43.068;25.610;2023-08-01T10:48:12;3.60;;;1.60;;
70985;SDS011;58645;43.068;25.610;2023-08-01T10:50:39;3.08;;;1.42;;
70985;SDS011;58645;43.068;25.610;2023-08-01T10:53:05;2.47;;;1.55;;
70985;SDS011;58645;43.068;25.610;2023-08-01T10:55:42;2.63;;;1.50;;
70985;SDS011;58645;43.068;25.610;2023-08-01T10:58:09;2.17;;;1.55;;
70985;SDS011;58645;43.068;25.610;2023-08-01T11:00:35;4.60;;;1.70;;
70985;SDS011;58645;43.068;25.610;2023-08-01T11:03:01;2.00;;;1.52;;
70985;SDS011;58645;43.068;25.610;2023-08-01T11:05:27;7.43;;;1.45;;
70985;SDS011;58645;43.068;25.610;2023-08-01T11:07:55;2.00;;;1.52;;
70985;SDS011;58645;43.068;25.610;2023-08-01T11:10:21;3.13;;;1.73;;
70985;SDS011;58645;43.068;25.610;2023-08-01T11:12:47;4.57;;;1.92;;
70985;SDS011;58645;43.068;25.610;2023-08-01T11:15:13;2.05;;;1.50;;
70985;SDS011;58645;43.068;25.610;2023-08-01T11:17:46;3.53;;;1.45;;
70985;SDS011;58645;43.068;25.610;2023-08-01T11:20:13;3.55;;;1.60;;
70985;SDS011;58645;43.068;25.610;2023-08-01T11:22:49;3.22;;;1.58;;
70985;SDS011;58645;43.068;25.610;2023-08-01T11:25:21;4.30;;;1.58;;
70985;SDS011;58645;43.068;25.610;2023-08-01T11:28:00;2.92;;;1.45;;
70985;SDS011;58645;43.068;25.610;2023-08-01T11:30:36;5.47;;;2.03;;
70985;SDS011;58645;43.068;25.610;2023-08-01T11:33:12;4.60;;;1.70;;
70985;SDS011;58645;43.068;25.610;2023-08-01T11:35:40;2.60;;;1.33;;
70985;SDS011;58645;43.068;25.610;2023-08-01T11:38:06;4.75;;;1.40;;
70985;SDS011;58645;43.068;25.610;2023-08-01T11:40:32;2.72;;;1.55;;
70985;SDS011;58645;43.068;25.610;2023-08-01T11:42:58;4.22;;;1.77;;
70985;SDS011;58645;43.068;25.610;2023-08-01T11:45:24;5.05;;;1.70;;
70985;SDS011;58645;43.068;25.610;2023-08-01T11:47:50;2.58;;;1.60;;
70985;SDS011;58645;43.068;25.610;2023-08-01T11:50:23;4.60;;;1.50;;
70985;SDS011;58645;43.068;25.610;2023-08-01T11:52:50;1.90;;;1.40;;
70985;SDS011;58645;43.068;25.610;2023-08-01T11:55:20;1.83;;;1.35;;
70985;SDS011;58645;43.068;25.610;2023-08-01T11:57:54;4.10;;;1.65;;
70985;SDS011;58645;43.068;25.610;2023-08-01T12:00:23;3.90;;;1.58;;
70985;SDS011;58645;43.068;25.610;2023-08-01T12:02:51;2.92;;;1.50;;
70985;SDS011;58645;43.068;25.610;2023-08-01T12:05:23;2.35;;;1.58;;
70985;SDS011;58645;43.068;25.610;2023-08-01T12:07:49;2.22;;;1.63;;
70985;SDS011;58645;43.068;25.610;2023-08-01T12:10:15;2.22;;;1.88;;
70985;SDS011;58645;43.068;25.610;2023-08-01T12:12:44;2.78;;;1.90;;
70985;SDS011;58645;43.068;25.610;2023-08-01T12:15:12;3.55;;;1.50;;
70985;SDS011;58645;43.068;25.610;2023-08-01T12:17:39;2.58;;;1.63;;
70985;SDS011;58645;43.068;25.610;2023-08-01T12:20:05;2.13;;;1.52;;
70985;SDS011;58645;43.068;25.610;2023-08-01T12:22:31;3.50;;;1.65;;
70985;SDS011;58645;43.068;25.610;2023-08-01T12:24:57;2.92;;;1.48;;
70985;SDS011;58645;43.068;25.610;2023-08-01T12:27:23;2.67;;;1.63;;
70985;SDS011;58645;43.068;25.610;2023-08-01T12:29:49;3.28;;;1.73;;
70985;SDS011;58645;43.068;25.610;2023-08-01T12:32:15;4.57;;;2.17;;
70985;SDS011;58645;43.068;25.610;2023-08-01T12:34:41;3.55;;;1.77;;
70985;SDS011;58645;43.068;25.610;2023-08-01T12:37:07;3.10;;;1.90;;
70985;SDS011;58645;43.068;25.610;2023-08-01T12:39:32;3.00;;;1.77;;
70985;SDS011;58645;43.068;25.610;2023-08-01T12:41:58;2.30;;;1.50;;
70985;SDS011;58645;43.068;25.610;2023-08-01T12:44:24;2.63;;;1.67;;
70985;SDS011;58645;43.068;25.610;2023-08-01T12:46:49;3.20;;;1.45;;
70985;SDS011;58645;43.068;25.610;2023-08-01T12:49:15;5.95;;;2.08;;
70985;SDS011;58645;43.068;25.610;2023-08-01T12:51:42;4.05;;;1.48;;
70985;SDS011;58645;43.068;25.610;2023-08-01T12:54:08;3.00;;;1.65;;
70985;SDS011;58645;43.068;25.610;2023-08-01T12:56:34;2.78;;;1.45;;
70985;SDS011;58645;43.068;25.610;2023-08-01T12:58:59;2.10;;;1.58;;
70985;SDS011;58645;43.068;25.610;2023-08-01T13:01:25;3.25;;;1.52;;
70985;SDS011;58645;43.068;25.610;2023-08-01T13:03:51;2.70;;;1.98;;
70985;SDS011;58645;43.068;25.610;2023-08-01T13:06:17;4.03;;;1.75;;
70985;SDS011;58645;43.068;25.610;2023-08-01T13:08:42;3.00;;;1.75;;
70985;SDS011;58645;43.068;25.610;2023-08-01T13:11:14;2.30;;;1.38;;
70985;SDS011;58645;43.068;25.610;2023-08-01T13:13:41;4.43;;;1.88;;
70985;SDS011;58645;43.068;25.610;2023-08-01T13:16:07;2.03;;;1.55;;
70985;SDS011;58645;43.068;25.610;2023-08-01T13:18:33;6.18;;;1.63;;
70985;SDS011;58645;43.068;25.610;2023-08-01T13:20:59;2.88;;;1.55;;
70985;SDS011;58645;43.068;25.610;2023-08-01T13:23:26;2.80;;;1.70;;
70985;SDS011;58645;43.068;25.610;2023-08-01T13:25:52;2.88;;;1.52;;
70985;SDS011;58645;43.068;25.610;2023-08-01T13:28:17;4.40;;;1.67;;
70985;SDS011;58645;43.068;25.610;2023-08-01T13:30:43;1.55;;;1.30;;
70985;SDS011;58645;43.068;25.610;2023-08-01T13:33:09;2.17;;;1.23;;
70985;SDS011;58645;43.068;25.610;2023-08-01T13:35:35;2.40;;;1.42;;
70985;SDS011;58645;43.068;25.610;2023-08-01T13:38:00;2.15;;;1.42;;
70985;SDS011;58645;43.068;25.610;2023-08-01T13:40:26;2.40;;;1.70;;
70985;SDS011;58645;43.068;25.610;2023-08-01T13:42:52;2.85;;;1.73;;
70985;SDS011;58645;43.068;25.610;2023-08-01T13:45:17;2.58;;;1.40;;
70985;SDS011;58645;43.068;25.610;2023-08-01T13:47:43;3.13;;;1.52;;
70985;SDS011;58645;43.068;25.610;2023-08-01T13:50:09;2.25;;;1.58;;
70985;SDS011;58645;43.068;25.610;2023-08-01T13:52:36;2.22;;;1.35;;
70985;SDS011;58645;43.068;25.610;2023-08-01T13:55:02;4.60;;;1.60;;
70985;SDS011;58645;43.068;25.610;2023-08-01T13:57:29;2.38;;;1.60;;
70985;SDS011;58645;43.068;25.610;2023-08-01T13:59:56;2.35;;;1.58;;
70985;SDS011;58645;43.068;25.610;2023-08-01T14:02:21;2.78;;;1.85;;
70985;SDS011;58645;43.068;25.610;2023-08-01T14:04:50;2.83;;;1.85;;
70985;SDS011;58645;43.068;25.610;2023-08-01T14:07:17;3.15;;;1.55;;
70985;SDS011;58645;43.068;25.610;2023-08-01T14:09:43;2.30;;;1.63;;
70985;SDS011;58645;43.068;25.610;2023-08-01T14:12:09;2.75;;;1.50;;
70985;SDS011;58645;43.068;25.610;2023-08-01T14:14:34;8.68;;;1.67;;
70985;SDS011;58645;43.068;25.610;2023-08-01T14:17:00;2.60;;;1.60;;
70985;SDS011;58645;43.068;25.610;2023-08-01T14:19:26;1.98;;;1.52;;
70985;SDS011;58645;43.068;25.610;2023-08-01T14:21:55;2.95;;;1.83;;
70985;SDS011;58645;43.068;25.610;2023-08-01T14:24:24;3.53;;;1.83;;
70985;SDS011;58645;43.068;25.610;2023-08-01T14:26:49;1.95;;;1.52;;
70985;SDS011;58645;43.068;25.610;2023-08-01T14:29:16;3.50;;;2.05;;
70985;SDS011;58645;43.068;25.610;2023-08-01T14:31:47;2.65;;;1.63;;